sensor_id;sensor_type;location;lat;lon;timestamp;temperature;humidity
46041;DHT22;31779;49.124;19.190;2022-08-20T00:01:18;18.00;99.90
46041;DHT22;31779;49.124;19.190;2022-08-20T00:03:48;18.10;99.90
46041;DHT22;31779;49.124;19.190;2022-08-20T00:06:22;18.00;99.90
46041;DHT22;31779;49.124;19.190;2022-08-20T00:08:50;18.00;99.90
46041;DHT22;31779;49.124;19.190;2022-08-20T00:11:25;17.90;99.90
46041;DHT22;31779;49.124;19.190;2022-08-20T00:13:58;17.90;99.90
46041;DHT22;31779;49.124;19.190;2022-08-20T00:16:29;17.90;99.90
46041;DHT22;31779;49.124;19.190;2022-08-20T00:19:00;17.90;99.90
46041;DHT22;31779;49.124;19.190;2022-08-20T00:21:28;17.80;99.90
46041;DHT22;31779;49.124;19.190;2022-08-20T00:23:57;17.60;99.90
46041;DHT22;31779;49.124;19.190;2022-08-20T00:26:26;17.70;99.90
46041;DHT22;31779;49.124;19.190;2022-08-20T00:28:53;17.80;99.90
46041;DHT22;31779;49.124;19.190;2022-08-20T00:31:23;17.70;99.90
46041;DHT22;31779;49.124;19.190;2022-08-20T00:33:52;17.60;99.90
46041;DHT22;31779;49.124;19.190;2022-08-20T00:36:20;17.60;99.90
46041;DHT22;31779;49.124;19.190;2022-08-20T00:38:59;17.60;99.90
46041;DHT22;31779;49.124;19.190;2022-08-20T00:41:27;17.60;99.90
46041;DHT22;31779;49.124;19.190;2022-08-20T00:44:18;17.60;99.90
46041;DHT22;31779;49.124;19.190;2022-08-20T00:46:48;17.30;99.90
46041;DHT22;31779;49.124;19.190;2022-08-20T00:49:20;17.40;99.90
46041;DHT22;31779;49.124;19.190;2022-08-20T00:54:32;17.20;99.90
46041;DHT22;31779;49.124;19.190;2022-08-20T00:59:51;17.20;99.90
46041;DHT22;31779;49.124;19.190;2022-08-20T01:02:22;17.20;99.90
46041;DHT22;31779;49.124;19.190;2022-08-20T01:04:53;17.30;99.90
46041;DHT22;31779;49.124;19.190;2022-08-20T01:07:50;17.40;99.90
46041;DHT22;31779;49.124;19.190;2022-08-20T01:10:36;17.40;99.90
46041;DHT22;31779;49.124;19.190;2022-08-20T01:13:23;17.40;99.90
46041;DHT22;31779;49.124;19.190;2022-08-20T01:16:12;17.40;99.90
46041;DHT22;31779;49.124;19.190;2022-08-20T01:18:45;17.40;99.90
46041;DHT22;31779;49.124;19.190;2022-08-20T01:21:16;17.40;99.90
46041;DHT22;31779;49.124;19.190;2022-08-20T01:23:58;17.40;99.90
46041;DHT22;31779;49.124;19.190;2022-08-20T01:26:38;17.30;99.90
46041;DHT22;31779;49.124;19.190;2022-08-20T01:29:16;17.20;99.90
46041;DHT22;31779;49.124;19.190;2022-08-20T01:31:47;17.30;99.90
46041;DHT22;31779;49.124;19.190;2022-08-20T01:34:17;17.30;99.90
46041;DHT22;31779;49.124;19.190;2022-08-20T01:36:49;17.30;99.90
46041;DHT22;31779;49.124;19.190;2022-08-20T01:39:23;17.30;99.90
46041;DHT22;31779;49.124;19.190;2022-08-20T01:44:41;17.30;99.90
46041;DHT22;31779;49.124;19.190;2022-08-20T01:47:20;17.40;99.90
46041;DHT22;31779;49.124;19.190;2022-08-20T01:49:51;17.60;99.90
46041;DHT22;31779;49.124;19.190;2022-08-20T01:52:35;17.60;99.90
46041;DHT22;31779;49.124;19.190;2022-08-20T01:55:03;17.60;99.90
46041;DHT22;31779;49.124;19.190;2022-08-20T01:57:32;17.70;99.90
46041;DHT22;31779;49.124;19.190;2022-08-20T02:00:12;17.70;99.90
46041;DHT22;31779;49.124;19.190;2022-08-20T02:02:49;17.60;99.90
46041;DHT22;31779;49.124;19.190;2022-08-20T02:05:18;17.60;99.90
46041;DHT22;31779;49.124;19.190;2022-08-20T02:07:46;17.60;99.90
46041;DHT22;31779;49.124;19.190;2022-08-20T02:10:16;17.60;99.90
46041;DHT22;31779;49.124;19.190;2022-08-20T02:12:45;17.60;99.90
46041;DHT22;31779;49.124;19.190;2022-08-20T02:15:13;17.60;99.90
46041;DHT22;31779;49.124;19.190;2022-08-20T02:17:43;17.70;99.90
46041;DHT22;31779;49.124;19.190;2022-08-20T02:20:19;17.80;99.90
46041;DHT22;31779;49.124;19.190;2022-08-20T02:22:55;17.70;99.90
46041;DHT22;31779;49.124;19.190;2022-08-20T02:25:25;17.70;99.90
46041;DHT22;31779;49.124;19.190;2022-08-20T02:27:57;17.70;99.90
46041;DHT22;31779;49.124;19.190;2022-08-20T02:30:31;17.80;99.90
46041;DHT22;31779;49.124;19.190;2022-08-20T02:33:03;17.70;99.90
46041;DHT22;31779;49.124;19.190;2022-08-20T02:35:33;17.70;99.90
46041;DHT22;31779;49.124;19.190;2022-08-20T02:38:02;17.80;99.90
46041;DHT22;31779;49.124;19.190;2022-08-20T02:40:32;17.80;99.90
46041;DHT22;31779;49.124;19.190;2022-08-20T02:43:01;17.80;99.90
46041;DHT22;31779;49.124;19.190;2022-08-20T02:45:31;17.70;99.90
46041;DHT22;31779;49.124;19.190;2022-08-20T02:48:04;17.70;99.90
46041;DHT22;31779;49.124;19.190;2022-08-20T02:50:32;17.70;99.90
46041;DHT22;31779;49.124;19.190;2022-08-20T02:52:59;17.70;99.90
46041;DHT22;31779;49.124;19.190;2022-08-20T02:55:28;17.70;99.90
46041;DHT22;31779;49.124;19.190;2022-08-20T02:57:57;17.80;99.90
46041;DHT22;31779;49.124;19.190;2022-08-20T03:00:29;17.70;99.90
46041;DHT22;31779;49.124;19.190;2022-08-20T03:03:06;17.80;99.90
46041;DHT22;31779;49.124;19.190;2022-08-20T03:05:38;17.60;99.90
46041;DHT22;31779;49.124;19.190;2022-08-20T03:08:07;17.60;99.90
46041;DHT22;31779;49.124;19.190;2022-08-20T03:10:39;17.50;99.90
46041;DHT22;31779;49.124;19.190;2022-08-20T03:13:08;17.50;99.90
46041;DHT22;31779;49.124;19.190;2022-08-20T03:15:46;17.40;99.90
46041;DHT22;31779;49.124;19.190;2022-08-20T03:18:17;17.30;99.90
46041;DHT22;31779;49.124;19.190;2022-08-20T03:20:46;17.30;99.90
46041;DHT22;31779;49.124;19.190;2022-08-20T03:23:20;17.40;99.90
46041;DHT22;31779;49.124;19.190;2022-08-20T03:25:48;17.40;99.90
46041;DHT22;31779;49.124;19.190;2022-08-20T03:28:18;17.40;99.90
46041;DHT22;31779;49.124;19.190;2022-08-20T03:30:46;17.40;99.90
46041;DHT22;31779;49.124;19.190;2022-08-20T03:33:14;17.40;99.90
46041;DHT22;31779;49.124;19.190;2022-08-20T03:35:42;17.30;99.90
46041;DHT22;31779;49.124;19.190;2022-08-20T03:38:12;17.30;99.90
46041;DHT22;31779;49.124;19.190;2022-08-20T03:40:42;17.30;99.90
46041;DHT22;31779;49.124;19.190;2022-08-20T03:43:10;17.30;99.90
46041;DHT22;31779;49.124;19.190;2022-08-20T03:45:40;17.30;99.90
46041;DHT22;31779;49.124;19.190;2022-08-20T03:48:10;17.40;99.90
46041;DHT22;31779;49.124;19.190;2022-08-20T03:50:40;17.40;99.90
46041;DHT22;31779;49.124;19.190;2022-08-20T03:53:11;17.40;99.90
46041;DHT22;31779;49.124;19.190;2022-08-20T03:55:43;17.40;99.90
46041;DHT22;31779;49.124;19.190;2022-08-20T03:58:22;17.40;99.90
46041;DHT22;31779;49.124;19.190;2022-08-20T04:01:04;17.40;99.90
46041;DHT22;31779;49.124;19.190;2022-08-20T04:03:33;17.50;99.90
46041;DHT22;31779;49.124;19.190;2022-08-20T04:06:01;17.50;99.90
46041;DHT22;31779;49.124;19.190;2022-08-20T04:08:29;17.50;99.90
46041;DHT22;31779;49.124;19.190;2022-08-20T04:10:59;17.60;99.90
46041;DHT22;31779;49.124;19.190;2022-08-20T04:13:29;17.50;99.90
46041;DHT22;31779;49.124;19.190;2022-08-20T04:15:59;17.50;99.90
46041;DHT22;31779;49.124;19.190;2022-08-20T04:18:27;17.60;99.90
46041;DHT22;31779;49.124;19.190;2022-08-20T04:20:55;17.60;99.90
46041;DHT22;31779;49.124;19.190;2022-08-20T04:23:23;17.60;99.90
46041;DHT22;31779;49.124;19.190;2022-08-20T04:25:50;17.70;99.90
46041;DHT22;31779;49.124;19.190;2022-08-20T04:28:24;17.70;99.90
46041;DHT22;31779;49.124;19.190;2022-08-20T04:30:56;17.80;99.90
46041;DHT22;31779;49.124;19.190;2022-08-20T04:33:27;17.80;99.90
46041;DHT22;31779;49.124;19.190;2022-08-20T04:36:03;17.90;99.90
46041;DHT22;31779;49.124;19.190;2022-08-20T04:38:34;18.00;99.90
46041;DHT22;31779;49.124;19.190;2022-08-20T04:41:21;18.00;99.90
46041;DHT22;31779;49.124;19.190;2022-08-20T04:43:51;18.00;99.90
46041;DHT22;31779;49.124;19.190;2022-08-20T04:46:21;18.10;99.90
46041;DHT22;31779;49.124;19.190;2022-08-20T04:48:49;18.10;99.90
46041;DHT22;31779;49.124;19.190;2022-08-20T04:51:17;18.10;99.90
46041;DHT22;31779;49.124;19.190;2022-08-20T04:53:50;18.20;99.90
46041;DHT22;31779;49.124;19.190;2022-08-20T04:56:22;18.30;99.90
46041;DHT22;31779;49.124;19.190;2022-08-20T04:58:55;18.40;99.90
46041;DHT22;31779;49.124;19.190;2022-08-20T05:01:24;18.40;99.90
46041;DHT22;31779;49.124;19.190;2022-08-20T05:03:53;18.30;99.90
46041;DHT22;31779;49.124;19.190;2022-08-20T05:06:24;18.50;99.90
46041;DHT22;31779;49.124;19.190;2022-08-20T05:08:54;18.60;99.90
46041;DHT22;31779;49.124;19.190;2022-08-20T05:11:22;18.60;99.90
46041;DHT22;31779;49.124;19.190;2022-08-20T05:14:06;18.70;99.90
46041;DHT22;31779;49.124;19.190;2022-08-20T05:16:39;18.70;99.90
46041;DHT22;31779;49.124;19.190;2022-08-20T05:19:09;18.70;99.90
46041;DHT22;31779;49.124;19.190;2022-08-20T05:21:38;18.80;99.90
46041;DHT22;31779;49.124;19.190;2022-08-20T05:24:06;18.80;99.90
46041;DHT22;31779;49.124;19.190;2022-08-20T05:26:34;18.90;99.90
46041;DHT22;31779;49.124;19.190;2022-08-20T05:29:02;19.00;99.90
46041;DHT22;31779;49.124;19.190;2022-08-20T05:31:32;19.00;99.90
46041;DHT22;31779;49.124;19.190;2022-08-20T05:34:05;19.10;99.90
46041;DHT22;31779;49.124;19.190;2022-08-20T05:36:45;19.10;99.90
46041;DHT22;31779;49.124;19.190;2022-08-20T05:39:18;19.30;99.90
46041;DHT22;31779;49.124;19.190;2022-08-20T05:41:47;19.40;99.90
46041;DHT22;31779;49.124;19.190;2022-08-20T05:44:18;19.60;99.90
46041;DHT22;31779;49.124;19.190;2022-08-20T05:46:47;19.50;99.90
46041;DHT22;31779;49.124;19.190;2022-08-20T05:49:18;19.50;99.90
46041;DHT22;31779;49.124;19.190;2022-08-20T05:51:48;19.60;99.90
46041;DHT22;31779;49.124;19.190;2022-08-20T05:54:17;19.80;99.90
46041;DHT22;31779;49.124;19.190;2022-08-20T05:56:45;19.90;99.90
46041;DHT22;31779;49.124;19.190;2022-08-20T05:59:13;20.00;99.90
46041;DHT22;31779;49.124;19.190;2022-08-20T06:01:41;20.20;99.90
46041;DHT22;31779;49.124;19.190;2022-08-20T06:04:10;20.20;99.90
46041;DHT22;31779;49.124;19.190;2022-08-20T06:07:00;20.30;99.90
46041;DHT22;31779;49.124;19.190;2022-08-20T06:09:29;20.20;99.90
46041;DHT22;31779;49.124;19.190;2022-08-20T06:12:01;20.40;99.90
46041;DHT22;31779;49.124;19.190;2022-08-20T06:14:30;20.40;99.90
46041;DHT22;31779;49.124;19.190;2022-08-20T06:17:04;20.60;99.90
46041;DHT22;31779;49.124;19.190;2022-08-20T06:19:33;20.50;99.90
46041;DHT22;31779;49.124;19.190;2022-08-20T06:22:04;20.50;99.90
46041;DHT22;31779;49.124;19.190;2022-08-20T06:24:52;20.50;99.90
46041;DHT22;31779;49.124;19.190;2022-08-20T06:27:21;20.50;99.90
46041;DHT22;31779;49.124;19.190;2022-08-20T06:29:49;20.60;99.90
46041;DHT22;31779;49.124;19.190;2022-08-20T06:32:18;21.00;99.90
46041;DHT22;31779;49.124;19.190;2022-08-20T06:35:04;21.40;99.90
46041;DHT22;31779;49.124;19.190;2022-08-20T06:37:35;21.50;99.90
46041;DHT22;31779;49.124;19.190;2022-08-20T06:40:07;22.00;99.90
46041;DHT22;31779;49.124;19.190;2022-08-20T06:42:37;22.30;99.90
46041;DHT22;31779;49.124;19.190;2022-08-20T06:45:19;22.40;99.90
46041;DHT22;31779;49.124;19.190;2022-08-20T06:47:48;22.60;99.90
46041;DHT22;31779;49.124;19.190;2022-08-20T06:50:19;23.00;99.90
46041;DHT22;31779;49.124;19.190;2022-08-20T06:52:48;23.50;99.90
46041;DHT22;31779;49.124;19.190;2022-08-20T06:55:20;24.00;99.90
46041;DHT22;31779;49.124;19.190;2022-08-20T06:58:02;24.40;99.90
46041;DHT22;31779;49.124;19.190;2022-08-20T07:00:31;24.70;99.90
46041;DHT22;31779;49.124;19.190;2022-08-20T07:03:01;25.20;99.90
46041;DHT22;31779;49.124;19.190;2022-08-20T07:05:32;25.30;99.90
46041;DHT22;31779;49.124;19.190;2022-08-20T07:08:00;25.20;99.90
46041;DHT22;31779;49.124;19.190;2022-08-20T07:10:29;25.50;99.90
46041;DHT22;31779;49.124;19.190;2022-08-20T07:12:57;25.50;99.90
46041;DHT22;31779;49.124;19.190;2022-08-20T07:15:27;25.20;99.90
46041;DHT22;31779;49.124;19.190;2022-08-20T07:17:58;24.60;99.90
46041;DHT22;31779;49.124;19.190;2022-08-20T07:20:29;24.40;99.90
46041;DHT22;31779;49.124;19.190;2022-08-20T07:22:59;24.30;99.90
46041;DHT22;31779;49.124;19.190;2022-08-20T07:25:28;24.30;99.90
46041;DHT22;31779;49.124;19.190;2022-08-20T07:28:05;24.20;99.90
46041;DHT22;31779;49.124;19.190;2022-08-20T07:30:33;24.20;99.90
46041;DHT22;31779;49.124;19.190;2022-08-20T07:33:28;24.30;99.90
46041;DHT22;31779;49.124;19.190;2022-08-20T07:35:58;24.20;99.90
46041;DHT22;31779;49.124;19.190;2022-08-20T07:38:27;24.00;99.90
46041;DHT22;31779;49.124;19.190;2022-08-20T07:41:00;23.70;99.90
46041;DHT22;31779;49.124;19.190;2022-08-20T07:43:29;24.00;99.90
46041;DHT22;31779;49.124;19.190;2022-08-20T07:45:59;24.10;99.90
46041;DHT22;31779;49.124;19.190;2022-08-20T07:48:29;24.70;99.90
46041;DHT22;31779;49.124;19.190;2022-08-20T07:51:00;24.80;99.90
46041;DHT22;31779;49.124;19.190;2022-08-20T07:53:31;24.90;99.90
46041;DHT22;31779;49.124;19.190;2022-08-20T07:56:08;24.90;99.90
46041;DHT22;31779;49.124;19.190;2022-08-20T07:58:44;24.70;99.90
46041;DHT22;31779;49.124;19.190;2022-08-20T08:01:21;24.60;99.90
46041;DHT22;31779;49.124;19.190;2022-08-20T08:03:49;24.40;99.90
46041;DHT22;31779;49.124;19.190;2022-08-20T08:06:19;24.30;99.90
46041;DHT22;31779;49.124;19.190;2022-08-20T08:09:08;24.10;99.90
46041;DHT22;31779;49.124;19.190;2022-08-20T08:11:40;24.00;99.90
46041;DHT22;31779;49.124;19.190;2022-08-20T08:14:16;23.80;99.90
46041;DHT22;31779;49.124;19.190;2022-08-20T08:16:46;23.90;99.90
46041;DHT22;31779;49.124;19.190;2022-08-20T08:19:15;23.60;99.90
46041;DHT22;31779;49.124;19.190;2022-08-20T08:21:43;23.50;99.90
46041;DHT22;31779;49.124;19.190;2022-08-20T08:24:11;23.60;99.90
46041;DHT22;31779;49.124;19.190;2022-08-20T08:26:48;23.80;99.90
46041;DHT22;31779;49.124;19.190;2022-08-20T08:29:17;24.10;99.90
46041;DHT22;31779;49.124;19.190;2022-08-20T08:31:45;24.20;99.90
46041;DHT22;31779;49.124;19.190;2022-08-20T08:34:13;24.40;99.90
46041;DHT22;31779;49.124;19.190;2022-08-20T08:36:41;24.60;99.90
46041;DHT22;31779;49.124;19.190;2022-08-20T08:39:10;24.10;99.90
46041;DHT22;31779;49.124;19.190;2022-08-20T08:41:46;24.20;99.90
46041;DHT22;31779;49.124;19.190;2022-08-20T08:44:19;24.20;99.90
46041;DHT22;31779;49.124;19.190;2022-08-20T08:46:54;24.30;99.90
46041;DHT22;31779;49.124;19.190;2022-08-20T08:49:31;23.70;99.90
46041;DHT22;31779;49.124;19.190;2022-08-20T08:52:17;23.40;99.90
46041;DHT22;31779;49.124;19.190;2022-08-20T08:54:49;23.50;99.90
46041;DHT22;31779;49.124;19.190;2022-08-20T08:57:18;23.80;99.90
46041;DHT22;31779;49.124;19.190;2022-08-20T08:59:59;23.90;99.90
46041;DHT22;31779;49.124;19.190;2022-08-20T09:02:32;24.50;99.90
46041;DHT22;31779;49.124;19.190;2022-08-20T09:05:03;25.80;99.90
46041;DHT22;31779;49.124;19.190;2022-08-20T09:07:43;26.30;99.90
46041;DHT22;31779;49.124;19.190;2022-08-20T09:10:13;26.60;99.90
46041;DHT22;31779;49.124;19.190;2022-08-20T09:12:40;26.90;99.90
46041;DHT22;31779;49.124;19.190;2022-08-20T09:15:14;27.20;99.90
46041;DHT22;31779;49.124;19.190;2022-08-20T09:17:43;27.20;99.90
46041;DHT22;31779;49.124;19.190;2022-08-20T09:20:11;27.00;99.90
46041;DHT22;31779;49.124;19.190;2022-08-20T09:22:40;27.00;99.90
46041;DHT22;31779;49.124;19.190;2022-08-20T09:25:11;26.20;99.90
46041;DHT22;31779;49.124;19.190;2022-08-20T09:27:40;25.30;99.90
46041;DHT22;31779;49.124;19.190;2022-08-20T09:30:10;24.40;99.90
46041;DHT22;31779;49.124;19.190;2022-08-20T09:32:40;23.80;99.90
46041;DHT22;31779;49.124;19.190;2022-08-20T09:35:09;23.30;99.90
46041;DHT22;31779;49.124;19.190;2022-08-20T09:37:37;23.80;99.90
46041;DHT22;31779;49.124;19.190;2022-08-20T09:40:06;24.00;99.90
46041;DHT22;31779;49.124;19.190;2022-08-20T09:42:36;24.10;99.90
46041;DHT22;31779;49.124;19.190;2022-08-20T09:45:09;23.80;99.90
46041;DHT22;31779;49.124;19.190;2022-08-20T09:47:38;23.60;99.90
46041;DHT22;31779;49.124;19.190;2022-08-20T09:50:21;23.60;99.90
46041;DHT22;31779;49.124;19.190;2022-08-20T09:52:53;23.50;99.90
46041;DHT22;31779;49.124;19.190;2022-08-20T09:55:34;23.20;99.90
46041;DHT22;31779;49.124;19.190;2022-08-20T10:00:53;23.30;99.90
46041;DHT22;31779;49.124;19.190;2022-08-20T10:03:21;23.20;99.90
46041;DHT22;31779;49.124;19.190;2022-08-20T10:05:48;23.00;99.90
46041;DHT22;31779;49.124;19.190;2022-08-20T10:08:16;23.00;99.90
46041;DHT22;31779;49.124;19.190;2022-08-20T10:10:45;23.00;99.90
46041;DHT22;31779;49.124;19.190;2022-08-20T10:13:12;23.00;99.90
46041;DHT22;31779;49.124;19.190;2022-08-20T10:15:41;22.70;99.90
46041;DHT22;31779;49.124;19.190;2022-08-20T10:18:10;22.40;99.90
46041;DHT22;31779;49.124;19.190;2022-08-20T10:20:39;22.30;99.90
46041;DHT22;31779;49.124;19.190;2022-08-20T10:23:07;22.10;99.90
46041;DHT22;31779;49.124;19.190;2022-08-20T10:25:35;21.80;99.90
46041;DHT22;31779;49.124;19.190;2022-08-20T10:28:03;21.80;99.90
46041;DHT22;31779;49.124;19.190;2022-08-20T10:30:33;21.60;99.90
46041;DHT22;31779;49.124;19.190;2022-08-20T10:33:01;21.70;99.90
46041;DHT22;31779;49.124;19.190;2022-08-20T10:35:29;21.60;99.90
46041;DHT22;31779;49.124;19.190;2022-08-20T10:37:57;21.50;99.90
46041;DHT22;31779;49.124;19.190;2022-08-20T10:40:26;21.50;99.90
46041;DHT22;31779;49.124;19.190;2022-08-20T10:42:54;21.40;99.90
46041;DHT22;31779;49.124;19.190;2022-08-20T10:45:23;21.30;99.90
46041;DHT22;31779;49.124;19.190;2022-08-20T10:47:52;21.10;99.90
46041;DHT22;31779;49.124;19.190;2022-08-20T10:50:20;21.10;99.90
46041;DHT22;31779;49.124;19.190;2022-08-20T10:52:57;21.00;99.90
46041;DHT22;31779;49.124;19.190;2022-08-20T10:55:25;20.90;99.90
46041;DHT22;31779;49.124;19.190;2022-08-20T10:57:53;20.90;99.90
46041;DHT22;31779;49.124;19.190;2022-08-20T11:00:21;20.80;99.90
46041;DHT22;31779;49.124;19.190;2022-08-20T11:02:49;20.90;99.90
46041;DHT22;31779;49.124;19.190;2022-08-20T11:05:18;20.80;99.90
46041;DHT22;31779;49.124;19.190;2022-08-20T11:07:46;20.70;99.90
46041;DHT22;31779;49.124;19.190;2022-08-20T11:10:24;20.90;99.90
46041;DHT22;31779;49.124;19.190;2022-08-20T11:12:53;20.90;99.90
46041;DHT22;31779;49.124;19.190;2022-08-20T11:15:21;21.00;99.90
46041;DHT22;31779;49.124;19.190;2022-08-20T11:17:49;21.00;99.90
46041;DHT22;31779;49.124;19.190;2022-08-20T11:20:20;21.10;99.90
46041;DHT22;31779;49.124;19.190;2022-08-20T11:22:48;21.10;99.90
46041;DHT22;31779;49.124;19.190;2022-08-20T11:25:17;20.80;99.90
46041;DHT22;31779;49.124;19.190;2022-08-20T11:27:47;20.80;99.90
46041;DHT22;31779;49.124;19.190;2022-08-20T11:30:36;20.90;99.90
46041;DHT22;31779;49.124;19.190;2022-08-20T11:33:05;20.60;99.90
46041;DHT22;31779;49.124;19.190;2022-08-20T11:35:34;20.70;99.90
46041;DHT22;31779;49.124;19.190;2022-08-20T11:38:17;20.80;99.90
46041;DHT22;31779;49.124;19.190;2022-08-20T11:40:46;20.90;99.90
46041;DHT22;31779;49.124;19.190;2022-08-20T11:43:14;21.10;99.90
46041;DHT22;31779;49.124;19.190;2022-08-20T11:45:46;21.40;99.90
46041;DHT22;31779;49.124;19.190;2022-08-20T11:48:15;21.80;99.90
46041;DHT22;31779;49.124;19.190;2022-08-20T11:50:45;22.00;99.90
46041;DHT22;31779;49.124;19.190;2022-08-20T11:53:13;22.30;99.90
46041;DHT22;31779;49.124;19.190;2022-08-20T11:55:44;22.40;99.90
46041;DHT22;31779;49.124;19.190;2022-08-20T11:58:16;23.00;99.90
46041;DHT22;31779;49.124;19.190;2022-08-20T12:00:49;23.50;99.90
46041;DHT22;31779;49.124;19.190;2022-08-20T12:03:18;23.90;99.90
46041;DHT22;31779;49.124;19.190;2022-08-20T12:05:48;24.00;99.90
46041;DHT22;31779;49.124;19.190;2022-08-20T12:08:30;24.10;99.90
46041;DHT22;31779;49.124;19.190;2022-08-20T12:11:00;24.20;99.90
46041;DHT22;31779;49.124;19.190;2022-08-20T12:13:31;23.90;99.90
46041;DHT22;31779;49.124;19.190;2022-08-20T12:16:16;23.80;99.90
46041;DHT22;31779;49.124;19.190;2022-08-20T12:18:45;23.40;99.90
46041;DHT22;31779;49.124;19.190;2022-08-20T12:21:13;22.50;99.90
46041;DHT22;31779;49.124;19.190;2022-08-20T12:23:41;22.30;99.90
46041;DHT22;31779;49.124;19.190;2022-08-20T12:26:11;22.20;99.90
46041;DHT22;31779;49.124;19.190;2022-08-20T12:28:41;22.10;99.90
46041;DHT22;31779;49.124;19.190;2022-08-20T12:31:10;21.90;99.90
46041;DHT22;31779;49.124;19.190;2022-08-20T12:33:38;21.80;99.90
46041;DHT22;31779;49.124;19.190;2022-08-20T12:36:06;21.70;99.90
46041;DHT22;31779;49.124;19.190;2022-08-20T12:38:34;21.50;99.90
46041;DHT22;31779;49.124;19.190;2022-08-20T12:41:02;21.40;99.90
46041;DHT22;31779;49.124;19.190;2022-08-20T12:43:30;20.90;99.90
46041;DHT22;31779;49.124;19.190;2022-08-20T12:45:58;20.80;99.90
46041;DHT22;31779;49.124;19.190;2022-08-20T12:48:26;20.60;99.90
46041;DHT22;31779;49.124;19.190;2022-08-20T12:50:55;20.60;99.90
46041;DHT22;31779;49.124;19.190;2022-08-20T12:53:23;20.50;99.90
46041;DHT22;31779;49.124;19.190;2022-08-20T12:55:51;20.50;99.90
46041;DHT22;31779;49.124;19.190;2022-08-20T12:58:19;20.50;99.90
46041;DHT22;31779;49.124;19.190;2022-08-20T13:00:48;20.50;99.90
46041;DHT22;31779;49.124;19.190;2022-08-20T13:03:18;20.30;99.90
46041;DHT22;31779;49.124;19.190;2022-08-20T13:05:47;20.10;99.90
46041;DHT22;31779;49.124;19.190;2022-08-20T13:08:15;20.10;99.90
46041;DHT22;31779;49.124;19.190;2022-08-20T13:10:46;19.90;99.90
46041;DHT22;31779;49.124;19.190;2022-08-20T13:13:16;19.80;99.90
46041;DHT22;31779;49.124;19.190;2022-08-20T13:15:49;19.90;99.90
46041;DHT22;31779;49.124;19.190;2022-08-20T13:18:18;20.00;99.90
46041;DHT22;31779;49.124;19.190;2022-08-20T13:20:47;19.80;99.90
46041;DHT22;31779;49.124;19.190;2022-08-20T13:23:16;19.90;99.90
46041;DHT22;31779;49.124;19.190;2022-08-20T13:25:44;20.20;99.90
46041;DHT22;31779;49.124;19.190;2022-08-20T13:28:13;20.40;99.90
46041;DHT22;31779;49.124;19.190;2022-08-20T13:30:41;20.70;99.90
46041;DHT22;31779;49.124;19.190;2022-08-20T13:33:09;20.80;99.90
46041;DHT22;31779;49.124;19.190;2022-08-20T13:35:37;21.00;99.90
46041;DHT22;31779;49.124;19.190;2022-08-20T13:38:05;21.10;99.90
46041;DHT22;31779;49.124;19.190;2022-08-20T13:40:34;21.30;99.90
46041;DHT22;31779;49.124;19.190;2022-08-20T13:43:02;21.40;99.90
46041;DHT22;31779;49.124;19.190;2022-08-20T13:45:35;21.80;99.90
46041;DHT22;31779;49.124;19.190;2022-08-20T13:48:05;22.00;99.90
46041;DHT22;31779;49.124;19.190;2022-08-20T13:50:43;22.20;99.90
46041;DHT22;31779;49.124;19.190;2022-08-20T13:53:14;22.00;99.90
46041;DHT22;31779;49.124;19.190;2022-08-20T13:55:43;21.90;99.90
46041;DHT22;31779;49.124;19.190;2022-08-20T13:58:11;22.30;99.90
46041;DHT22;31779;49.124;19.190;2022-08-20T14:00:39;22.40;99.90
46041;DHT22;31779;49.124;19.190;2022-08-20T14:03:09;22.60;99.90
46041;DHT22;31779;49.124;19.190;2022-08-20T14:05:37;23.00;99.90
46041;DHT22;31779;49.124;19.190;2022-08-20T14:10:34;23.20;99.90
46041;DHT22;31779;49.124;19.190;2022-08-20T14:13:02;23.30;99.90
46041;DHT22;31779;49.124;19.190;2022-08-20T14:15:35;23.50;99.90
46041;DHT22;31779;49.124;19.190;2022-08-20T14:18:03;23.50;99.90
46041;DHT22;31779;49.124;19.190;2022-08-20T14:20:34;23.30;99.90
46041;DHT22;31779;49.124;19.190;2022-08-20T14:23:06;23.50;99.90
46041;DHT22;31779;49.124;19.190;2022-08-20T14:25:36;23.50;99.90
46041;DHT22;31779;49.124;19.190;2022-08-20T14:28:11;23.30;99.90
46041;DHT22;31779;49.124;19.190;2022-08-20T14:30:41;23.40;99.90
46041;DHT22;31779;49.124;19.190;2022-08-20T14:33:11;22.90;99.90
46041;DHT22;31779;49.124;19.190;2022-08-20T14:35:40;23.00;99.90
46041;DHT22;31779;49.124;19.190;2022-08-20T14:38:09;23.00;99.90
46041;DHT22;31779;49.124;19.190;2022-08-20T14:40:38;23.00;99.90
46041;DHT22;31779;49.124;19.190;2022-08-20T14:43:07;22.70;99.90
46041;DHT22;31779;49.124;19.190;2022-08-20T14:45:35;22.40;99.90
46041;DHT22;31779;49.124;19.190;2022-08-20T14:48:06;22.30;99.90
46041;DHT22;31779;49.124;19.190;2022-08-20T14:50:35;22.20;99.90
46041;DHT22;31779;49.124;19.190;2022-08-20T14:53:04;22.10;99.90
46041;DHT22;31779;49.124;19.190;2022-08-20T14:55:34;22.00;99.90
46041;DHT22;31779;49.124;19.190;2022-08-20T14:58:08;21.90;99.90
46041;DHT22;31779;49.124;19.190;2022-08-20T15:00:37;21.90;99.90
46041;DHT22;31779;49.124;19.190;2022-08-20T15:03:05;21.30;99.90
46041;DHT22;31779;49.124;19.190;2022-08-20T15:05:34;20.90;99.90
46041;DHT22;31779;49.124;19.190;2022-08-20T15:08:06;20.90;99.90
46041;DHT22;31779;49.124;19.190;2022-08-20T15:10:36;20.90;99.90
46041;DHT22;31779;49.124;19.190;2022-08-20T15:13:06;20.80;99.90
46041;DHT22;31779;49.124;19.190;2022-08-20T15:15:34;20.90;99.90
46041;DHT22;31779;49.124;19.190;2022-08-20T15:18:03;21.10;99.90
46041;DHT22;31779;49.124;19.190;2022-08-20T15:20:34;21.10;99.90
46041;DHT22;31779;49.124;19.190;2022-08-20T15:23:03;21.00;99.90
46041;DHT22;31779;49.124;19.190;2022-08-20T15:25:33;20.90;99.90
46041;DHT22;31779;49.124;19.190;2022-08-20T15:28:07;21.00;99.90
46041;DHT22;31779;49.124;19.190;2022-08-20T15:30:38;20.80;99.90
46041;DHT22;31779;49.124;19.190;2022-08-20T15:33:09;20.60;99.90
46041;DHT22;31779;49.124;19.190;2022-08-20T15:35:37;20.40;99.90
46041;DHT22;31779;49.124;19.190;2022-08-20T15:38:05;20.50;99.90
46041;DHT22;31779;49.124;19.190;2022-08-20T15:40:33;20.40;99.90
46041;DHT22;31779;49.124;19.190;2022-08-20T15:43:03;20.30;99.90
46041;DHT22;31779;49.124;19.190;2022-08-20T15:45:31;20.30;99.90
46041;DHT22;31779;49.124;19.190;2022-08-20T15:48:06;20.40;99.90
46041;DHT22;31779;49.124;19.190;2022-08-20T16:02:07;20.50;99.90
46041;DHT22;31779;49.124;19.190;2022-08-20T16:07:43;19.90;99.90